Time;durP1;ratioP1;P1;durP2;ratioP2;P2;SDS_P1;SDS_P2;PMS_P1;PMS_P2;Temp;Humidity;BMP_temperature;BMP_pressure;BME280_temperature;BME280_humidity;BME280_pressure;Samples;Min_cycle;Max_cycle;Signal;HPM_P1;HPM_P2
2022/04/05 00:02:24;;;;;;;4.28;0.60;;;7.40;99.90;;;;;;5039071;28;20044;-51
2022/04/05 00:04:50;;;;;;;2.63;0.50;;;7.40;99.90;;;;;;5052433;28;20517;-47
2022/04/05 00:07:16;;;;;;;2.87;0.50;;;7.40;99.90;;;;;;5050748;28;20041;-50
2022/04/05 00:09:42;;;;;;;4.68;1.20;;;7.40;99.90;;;;;;5052756;28;20041;-50
2022/04/05 00:12:08;;;;;;;3.03;0.50;;;7.40;99.90;;;;;;5035341;28;20052;-46
2022/04/05 00:14:34;;;;;;;2.42;0.40;;;7.30;99.90;;;;;;5032648;28;20041;-50
2022/04/05 00:16:59;;;;;;;4.35;0.68;;;7.30;99.90;;;;;;5047811;28;20041;-50
2022/04/05 00:19:25;;;;;;;1.80;0.43;;;7.30;99.90;;;;;;5052878;28;20174;-50
2022/04/05 00:21:54;;;;;;;2.22;0.50;;;7.30;99.90;;;;;;5051453;28;20067;-51
2022/04/05 00:24:19;;;;;;;3.72;0.40;;;7.30;99.90;;;;;;5053021;28;20045;-47
2022/04/05 00:26:45;;;;;;;2.60;0.50;;;7.30;99.90;;;;;;5050507;28;20032;-50
2022/04/05 00:29:10;;;;;;;5.17;0.57;;;7.30;99.90;;;;;;5052556;28;20093;-51
2022/04/05 00:31:36;;;;;;;3.10;0.63;;;7.30;99.90;;;;;;5050392;28;20051;-50
2022/04/05 00:34:02;;;;;;;1.17;0.40;;;7.20;99.90;;;;;;5052849;28;20056;-48
2022/04/05 00:36:27;;;;;;;4.30;0.40;;;7.20;99.90;;;;;;5040377;28;20103;-51
2022/04/05 00:38:53;;;;;;;4.50;0.67;;;7.20;99.90;;;;;;5032423;28;20045;-51
2022/04/05 00:41:18;;;;;;;4.53;0.70;;;7.20;99.90;;;;;;5041201;28;20123;-48
2022/04/05 00:43:44;;;;;;;1.20;0.30;;;7.20;99.90;;;;;;5043685;28;20421;-48
2022/04/05 00:46:09;;;;;;;4.43;0.50;;;7.20;99.90;;;;;;5036819;28;20412;-47
2022/04/05 00:48:49;;;;;;;4.10;0.63;;;7.10;99.90;;;;;;5051331;28;20041;-47
2022/04/05 00:51:16;;;;;;;4.20;0.45;;;7.10;99.90;;;;;;5031766;28;20052;-47
2022/04/05 00:53:47;;;;;;;4.82;0.40;;;7.10;99.90;;;;;;5045273;28;20510;-47
2022/04/05 00:56:15;;;;;;;1.67;0.30;;;7.10;99.90;;;;;;5048148;28;20041;-46
2022/04/05 00:58:42;;;;;;;1.42;0.45;;;7.10;99.90;;;;;;5031958;28;20045;-47
2022/04/05 01:01:09;;;;;;;3.40;0.60;;;7.10;99.90;;;;;;5034022;28;20037;-47
2022/04/05 01:03:35;;;;;;;3.75;0.70;;;7.10;99.90;;;;;;5051861;28;20080;-48
2022/04/05 01:06:01;;;;;;;5.00;0.40;;;7.00;99.90;;;;;;5051048;28;20072;-47
2022/04/05 01:08:28;;;;;;;2.42;0.40;;;7.00;99.90;;;;;;5031701;28;20034;-49
2022/04/05 01:10:55;;;;;;;1.63;0.40;;;7.00;99.90;;;;;;5031577;28;20047;-48
2022/04/05 01:13:21;;;;;;;3.90;0.45;;;7.00;99.90;;;;;;5050220;28;20056;-48
2022/04/05 01:15:46;;;;;;;3.03;0.40;;;7.00;99.90;;;;;;5042727;28;20183;-48
2022/04/05 01:18:13;;;;;;;2.00;0.35;;;7.00;99.90;;;;;;5048945;28;20029;-47
2022/04/05 01:20:39;;;;;;;6.88;0.80;;;7.00;99.90;;;;;;5033778;28;20068;-47
2022/04/05 01:23:05;;;;;;;4.23;1.13;;;7.00;99.90;;;;;;5031644;28;20491;-47
2022/04/05 01:25:30;;;;;;;10.57;1.50;;;7.00;99.90;;;;;;5046746;28;20482;-48
2022/04/05 01:27:57;;;;;;;4.80;0.70;;;7.00;99.90;;;;;;5038335;28;20131;-47
2022/04/05 01:30:23;;;;;;;4.97;0.40;;;7.00;99.90;;;;;;5034394;28;20562;-48
2022/04/05 01:32:49;;;;;;;4.15;0.55;;;7.00;99.90;;;;;;5050268;28;20049;-47
2022/04/05 01:35:15;;;;;;;4.10;0.70;;;7.00;99.90;;;;;;5049058;28;20045;-48
2022/04/05 01:37:41;;;;;;;6.10;0.70;;;7.00;99.90;;;;;;5029902;28;20052;-50
2022/04/05 01:40:07;;;;;;;6.00;0.63;;;7.00;99.90;;;;;;5030638;28;20048;-47
2022/04/05 01:42:37;;;;;;;1.58;0.43;;;7.00;99.90;;;;;;5051022;28;20473;-47
2022/04/05 01:45:04;;;;;;;4.50;0.52;;;6.90;99.90;;;;;;5050866;28;20424;-47
2022/04/05 01:47:29;;;;;;;4.40;0.85;;;7.00;99.90;;;;;;5049314;28;20044;-48
2022/04/05 01:49:55;;;;;;;2.17;0.60;;;7.00;99.90;;;;;;5051075;28;20394;-49
2022/04/05 01:52:20;;;;;;;4.50;0.70;;;6.90;99.90;;;;;;5031094;28;20323;-47
2022/04/05 01:54:46;;;;;;;1.80;0.60;;;6.90;99.90;;;;;;5029345;28;20487;-50
2022/04/05 01:57:13;;;;;;;8.47;0.90;;;6.90;99.90;;;;;;5032054;28;20045;-48
2022/04/05 01:59:39;;;;;;;3.47;0.63;;;6.90;99.90;;;;;;5032040;28;20427;-50
2022/04/05 02:02:06;;;;;;;4.50;0.70;;;6.90;99.90;;;;;;5028720;28;20045;-47
2022/04/05 02:04:32;;;;;;;2.47;0.63;;;6.90;99.90;;;;;;5042618;28;20044;-49
2022/04/05 02:06:58;;;;;;;1.98;0.45;;;6.90;99.90;;;;;;5040855;28;20445;-47
2022/04/05 02:09:23;;;;;;;1.20;0.63;;;6.90;99.90;;;;;;5030378;28;20069;-48
2022/04/05 02:11:49;;;;;;;3.90;0.40;;;6.90;99.90;;;;;;5044468;28;20287;-47
2022/04/05 02:14:15;;;;;;;5.57;0.77;;;6.90;99.90;;;;;;5049979;28;20102;-48
2022/04/05 02:16:41;;;;;;;;;;;6.90;99.90;;;;;;5048917;28;20103;-51
2022/04/05 02:19:06;;;;;;;3.08;0.70;;;6.80;99.90;;;;;;5050361;28;19922;-48
2022/04/05 02:21:32;;;;;;;4.60;0.50;;;6.80;99.90;;;;;;5039754;28;20044;-47
2022/04/05 02:23:58;;;;;;;4.20;0.40;;;6.80;99.90;;;;;;5030008;28;20053;-50
2022/04/05 02:26:24;;;;;;;3.70;0.43;;;6.80;99.90;;;;;;5031138;28;20479;-48
2022/04/05 02:28:50;;;;;;;1.17;0.30;;;6.80;99.90;;;;;;5028932;28;20117;-51
2022/04/05 02:31:16;;;;;;;1.00;0.40;;;6.80;99.90;;;;;;5031548;28;20037;-51
2022/04/05 02:33:42;;;;;;;0.95;0.38;;;6.80;99.90;;;;;;5035228;28;20090;-49
2022/04/05 02:36:08;;;;;;;1.25;0.30;;;6.80;99.90;;;;;;5048389;28;20406;-51
2022/04/05 02:38:35;;;;;;;3.08;0.40;;;6.70;99.90;;;;;;5029701;28;20068;-49
2022/04/05 02:41:04;;;;;;;2.78;0.80;;;6.70;99.90;;;;;;5029013;28;20049;-50
2022/04/05 02:43:29;;;;;;;2.95;0.38;;;6.70;99.90;;;;;;5050066;28;20485;-50
2022/04/05 02:45:55;;;;;;;1.07;0.30;;;6.70;99.90;;;;;;5039854;28;20073;-47
2022/04/05 02:48:24;;;;;;;7.65;1.15;;;6.70;99.90;;;;;;5031640;28;20308;-47
2022/04/05 02:50:51;;;;;;;3.13;0.65;;;6.70;99.90;;;;;;5049275;28;20390;-47
2022/04/05 02:53:17;;;;;;;2.00;0.40;;;6.70;99.90;;;;;;5049476;28;20450;-48
2022/04/05 02:55:43;;;;;;;5.03;0.68;;;6.70;99.90;;;;;;5034859;28;20120;-47
2022/04/05 02:58:08;;;;;;;1.47;0.33;;;6.70;99.90;;;;;;5050111;28;20116;-47
2022/04/05 03:00:35;;;;;;;1.83;0.30;;;6.70;99.90;;;;;;5030971;28;20136;-47
2022/04/05 03:03:01;;;;;;;;;;;6.70;99.90;;;;;;5045790;28;20497;-48
2022/04/05 03:05:26;;;;;;;2.20;0.55;;;6.70;99.90;;;;;;5042034;28;19967;-46
2022/04/05 03:07:52;;;;;;;2.73;0.50;;;6.70;99.90;;;;;;5029798;28;20490;-46
2022/04/05 03:10:17;;;;;;;3.00;0.67;;;6.60;99.90;;;;;;5038436;28;20410;-47
2022/04/05 03:12:43;;;;;;;3.23;0.60;;;6.60;99.90;;;;;;5050032;28;20448;-49
2022/04/05 03:15:09;;;;;;;2.17;0.50;;;6.60;99.90;;;;;;5051541;28;20403;-48
2022/04/05 03:17:40;;;;;;;;;;;6.60;99.90;;;;;;5054010;28;20076;-48
2022/04/05 03:20:06;;;;;;;11.95;1.50;;;6.60;99.90;;;;;;5034840;28;19917;-48
2022/04/05 03:22:32;;;;;;;3.78;0.40;;;6.60;99.90;;;;;;5033713;28;20049;-48
2022/04/05 03:24:57;;;;;;;1.70;0.90;;;6.60;99.90;;;;;;5047208;28;20063;-49
2022/04/05 03:27:23;;;;;;;3.60;1.07;;;6.60;99.90;;;;;;5040837;28;20033;-47
2022/04/05 03:29:48;;;;;;;2.43;0.97;;;6.70;99.90;;;;;;5052473;28;20037;-46
2022/04/05 03:32:14;;;;;;;5.33;0.87;;;6.70;99.90;;;;;;5051782;28;20090;-47
2022/04/05 03:34:39;;;;;;;2.17;0.70;;;6.70;99.90;;;;;;5049001;28;20037;-50
2022/04/05 03:37:06;;;;;;;3.57;1.00;;;6.70;99.90;;;;;;5033433;28;20055;-49
2022/04/05 03:39:31;;;;;;;5.45;1.13;;;6.70;99.90;;;;;;5034991;28;20553;-48
2022/04/05 03:42:00;;;;;;;6.53;1.73;;;6.70;99.90;;;;;;5053114;28;20045;-48
2022/04/05 03:44:26;;;;;;;5.65;0.80;;;6.70;99.90;;;;;;5052376;28;20037;-49
2022/04/05 03:46:52;;;;;;;5.28;1.05;;;6.70;99.90;;;;;;5033442;28;20491;-46
2022/04/05 03:49:18;;;;;;;3.03;1.23;;;6.70;99.90;;;;;;5033225;28;20038;-47
2022/04/05 03:51:44;;;;;;;4.40;1.38;;;6.70;99.90;;;;;;5052024;28;20052;-50
2022/04/05 03:54:10;;;;;;;2.45;0.60;;;6.70;99.90;;;;;;5053160;28;20063;-50
2022/04/05 03:56:36;;;;;;;3.03;1.10;;;6.70;99.90;;;;;;5035546;28;20072;-48
2022/04/05 03:59:01;;;;;;;3.77;1.00;;;6.80;99.90;;;;;;5033086;28;20495;-47
2022/04/05 04:01:27;;;;;;;6.37;1.23;;;6.80;99.90;;;;;;5051448;28;20055;-49
2022/04/05 04:03:52;;;;;;;7.10;1.03;;;6.80;99.90;;;;;;5051727;28;20311;-48
2022/04/05 04:06:18;;;;;;;4.03;1.40;;;6.80;99.90;;;;;;5035825;28;20041;-48
2022/04/05 04:08:43;;;;;;;6.67;1.20;;;6.80;99.90;;;;;;5033268;28;20033;-47
2022/04/05 04:11:09;;;;;;;4.80;1.07;;;6.80;99.90;;;;;;5047912;28;20037;-51
2022/04/05 04:13:35;;;;;;;4.23;1.13;;;6.80;99.90;;;;;;5053336;28;20101;-47
2022/04/05 04:16:01;;;;;;;3.87;1.30;;;6.80;99.90;;;;;;5039332;28;20069;-48
2022/04/05 04:18:26;;;;;;;5.38;1.27;;;6.80;99.90;;;;;;5032983;28;20106;-50
2022/04/05 04:20:52;;;;;;;5.57;1.37;;;6.80;99.90;;;;;;5040055;28;20441;-51
2022/04/05 04:23:17;;;;;;;7.68;1.75;;;6.80;99.90;;;;;;5032772;28;20037;-51
2022/04/05 04:25:43;;;;;;;5.93;1.30;;;6.80;99.90;;;;;;5032660;28;20037;-49
2022/04/05 04:28:09;;;;;;;3.53;1.33;;;6.80;99.90;;;;;;5032724;28;20037;-48
2022/04/05 04:30:36;;;;;;;;;;;6.80;99.90;;;;;;5032615;28;20049;-51
2022/04/05 04:33:02;;;;;;;4.82;1.95;;;6.80;99.90;;;;;;5032352;28;19924;-50
2022/04/05 04:35:29;;;;;;;5.00;1.95;;;6.80;99.90;;;;;;5041687;28;20060;-50
2022/04/05 04:37:54;;;;;;;;;;;6.80;99.90;;;;;;5052673;28;20045;-50
2022/04/05 04:40:21;;;;;;;7.30;2.00;;;6.80;99.90;;;;;;5044125;28;19992;-51
2022/04/05 04:42:46;;;;;;;5.85;2.53;;;6.80;99.90;;;;;;5032250;28;20045;-51
2022/04/05 04:45:12;;;;;;;9.73;3.60;;;6.80;99.90;;;;;;5045614;28;20028;-51
2022/04/05 04:47:39;;;;;;;6.88;3.20;;;6.80;99.90;;;;;;5051518;28;20692;-50
2022/04/05 04:50:06;;;;;;;6.65;2.47;;;6.80;99.90;;;;;;5038477;28;20497;-50
2022/04/05 04:52:32;;;;;;;7.20;3.08;;;6.70;99.90;;;;;;5032234;28;20056;-48
2022/04/05 04:54:58;;;;;;;5.10;2.50;;;6.80;99.90;;;;;;5043819;28;20040;-49
2022/04/05 04:57:25;;;;;;;7.33;2.93;;;6.70;99.90;;;;;;5038926;28;20044;-48
2022/04/05 04:59:51;;;;;;;6.18;2.60;;;6.70;99.90;;;;;;5051986;28;20037;-47
2022/04/05 05:02:17;;;;;;;8.40;3.92;;;6.70;99.90;;;;;;5047753;28;20518;-52
2022/04/05 05:04:42;;;;;;;9.40;3.03;;;6.70;99.90;;;;;;5031719;28;20045;-49
2022/04/05 05:07:08;;;;;;;9.83;3.63;;;6.70;99.90;;;;;;5045037;28;20029;-49
2022/04/05 05:09:34;;;;;;;7.93;4.53;;;6.70;99.90;;;;;;5051828;28;20052;-49
2022/04/05 05:12:00;;;;;;;9.27;3.57;;;6.70;99.90;;;;;;5039545;28;20037;-48
2022/04/05 05:14:27;;;;;;;6.30;3.65;;;6.70;99.90;;;;;;5051512;28;20509;-47
2022/04/05 05:16:55;;;;;;;9.00;4.15;;;6.70;99.90;;;;;;5040169;28;20033;-48
2022/04/05 05:19:22;;;;;;;8.93;3.65;;;6.70;99.90;;;;;;5030215;28;20053;-48
2022/04/05 05:21:48;;;;;;;8.52;3.78;;;6.70;99.90;;;;;;5041285;28;20040;-49
2022/04/05 05:24:13;;;;;;;12.50;4.40;;;6.70;99.90;;;;;;5044489;28;20446;-47
2022/04/05 05:26:39;;;;;;;8.68;3.72;;;6.70;99.90;;;;;;5032296;28;20037;-48
2022/04/05 05:29:05;;;;;;;14.90;4.15;;;6.70;99.90;;;;;;5035898;28;20090;-48
2022/04/05 05:31:31;;;;;;;9.50;2.92;;;6.70;99.90;;;;;;5050935;28;20041;-47
2022/04/05 05:33:57;;;;;;;5.53;3.65;;;6.80;99.90;;;;;;5048176;28;20482;-47
2022/04/05 05:36:22;;;;;;;8.90;4.07;;;6.70;99.90;;;;;;5031972;28;20492;-48
2022/04/05 05:38:48;;;;;;;10.87;4.57;;;6.80;99.90;;;;;;5031206;28;20041;-50
2022/04/05 05:41:13;;;;;;;6.00;3.83;;;6.80;99.90;;;;;;5030937;28;20095;-50
2022/04/05 05:43:40;;;;;;;10.43;4.37;;;6.80;99.90;;;;;;5031357;28;20041;-47
2022/04/05 05:46:06;;;;;;;12.63;4.43;;;6.80;99.90;;;;;;5036126;28;20041;-47
2022/04/05 05:48:33;;;;;;;7.20;4.32;;;6.80;99.90;;;;;;5049587;28;20051;-47
2022/04/05 05:50:59;;;;;;;;;;;6.90;99.90;;;;;;5047127;28;20037;-48
2022/04/05 05:53:24;;;;;;;9.00;4.10;;;6.80;99.90;;;;;;5032040;28;19925;-47
2022/04/05 05:55:50;;;;;;;11.80;4.67;;;6.90;99.90;;;;;;5036144;28;20048;-47
2022/04/05 05:58:15;;;;;;;8.63;4.40;;;6.90;99.90;;;;;;5050001;28;20123;-48
2022/04/05 06:00:41;;;;;;;7.90;4.37;;;6.90;99.90;;;;;;5030367;28;20038;-50
2022/04/05 06:03:09;;;;;;;7.60;4.33;;;6.90;99.90;;;;;;5044593;28;20041;-47
2022/04/05 06:05:34;;;;;;;14.18;4.00;;;6.90;99.90;;;;;;5047823;28;20090;-51
2022/04/05 06:08:00;;;;;;;8.57;4.03;;;7.00;99.90;;;;;;5038286;28;20044;-49
2022/04/05 06:10:26;;;;;;;10.50;4.63;;;7.00;99.90;;;;;;5029605;28;20041;-50
2022/04/05 06:12:55;;;;;;;11.43;4.47;;;7.00;99.90;;;;;;5030662;28;20095;-49
2022/04/05 06:15:21;;;;;;;12.30;5.07;;;7.00;99.90;;;;;;5028715;28;20068;-48
2022/04/05 06:17:49;;;;;;;12.65;4.60;;;7.10;99.90;;;;;;5030390;28;20483;-49
2022/04/05 06:20:16;;;;;;;7.25;3.53;;;7.10;99.90;;;;;;5030510;28;20099;-49
2022/04/05 06:22:51;;;;;;;7.38;4.45;;;7.10;99.90;;;;;;5030558;28;20405;-49
2022/04/05 06:25:38;;;;;;;14.27;4.88;;;7.10;99.90;;;;;;5030111;28;20479;-48
2022/04/05 06:28:06;;;;;;;9.98;4.47;;;7.10;99.90;;;;;;5029884;28;20081;-47
2022/04/05 06:30:34;;;;;;;7.25;3.85;;;7.10;99.90;;;;;;5030560;28;20104;-51
2022/04/05 06:33:18;;;;;;;5.97;3.30;;;7.20;99.90;;;;;;5041743;28;20034;-47
2022/04/05 06:35:46;;;;;;;8.60;3.85;;;7.20;99.90;;;;;;5050224;28;20573;-47
2022/04/05 06:38:12;;;;;;;6.68;3.28;;;7.20;99.90;;;;;;5048230;28;20429;-51
2022/04/05 06:40:38;;;;;;;11.60;4.60;;;7.20;99.90;;;;;;5050086;28;20115;-49
2022/04/05 06:43:04;;;;;;;11.98;3.28;;;7.20;99.90;;;;;;5050216;28;20122;-51
2022/04/05 06:45:30;;;;;;;10.43;2.88;;;7.30;99.90;;;;;;5049796;28;20041;-49
2022/04/05 06:47:56;;;;;;;7.18;2.15;;;7.30;99.90;;;;;;5042389;28;20037;-51
2022/04/05 06:50:25;;;;;;;7.60;2.65;;;7.30;99.90;;;;;;5039140;28;20048;-51
2022/04/05 06:52:52;;;;;;;6.95;2.25;;;7.30;99.90;;;;;;5038226;28;20051;-51
2022/04/05 06:55:18;;;;;;;5.82;2.42;;;7.30;99.90;;;;;;5032433;28;20073;-50
2022/04/05 06:57:44;;;;;;;8.13;2.70;;;7.40;99.90;;;;;;5029875;28;20095;-49
2022/04/05 07:00:11;;;;;;;7.25;1.70;;;7.40;99.90;;;;;;5030315;28;20037;-49
2022/04/05 07:02:38;;;;;;;6.40;1.38;;;7.40;99.90;;;;;;5030012;28;20068;-48
2022/04/05 07:05:05;;;;;;;3.80;1.35;;;7.40;99.90;;;;;;5028671;28;20037;-47
2022/04/05 07:07:31;;;;;;;2.95;1.63;;;7.50;99.90;;;;;;5029828;28;20068;-46
2022/04/05 07:09:56;;;;;;;5.22;1.38;;;7.50;99.90;;;;;;5028771;28;20041;-47
2022/04/05 07:12:23;;;;;;;5.50;1.33;;;7.60;99.90;;;;;;5030190;28;20041;-48
2022/04/05 07:14:49;;;;;;;2.40;1.23;;;7.60;99.90;;;;;;5028284;28;20650;-48
2022/04/05 07:17:15;;;;;;;2.30;0.77;;;7.60;99.90;;;;;;5023548;28;20060;-50
2022/04/05 07:19:40;;;;;;;3.13;1.07;;;7.60;99.90;;;;;;5029616;28;20490;-46
2022/04/05 07:22:06;;;;;;;4.60;0.47;;;7.60;99.90;;;;;;5030179;28;20041;-47
2022/04/05 07:24:31;;;;;;;4.55;0.93;;;7.70;99.90;;;;;;5029916;28;20041;-50
2022/04/05 07:26:57;;;;;;;4.03;1.37;;;7.60;99.90;;;;;;5029791;28;20091;-47
2022/04/05 07:29:23;;;;;;;3.70;0.60;;;7.60;99.90;;;;;;5029621;28;20040;-47
2022/04/05 07:31:48;;;;;;;3.75;0.88;;;7.60;99.90;;;;;;5029814;28;20596;-48
2022/04/05 07:34:14;;;;;;;3.07;0.93;;;7.60;99.90;;;;;;5028555;28;20406;-48
2022/04/05 07:36:40;;;;;;;0.57;0.33;;;7.70;99.90;;;;;;5029330;28;20099;-47
2022/04/05 07:39:05;;;;;;;1.87;0.37;;;7.70;99.90;;;;;;5029633;28;20037;-48
2022/04/05 07:41:31;;;;;;;1.63;0.30;;;7.70;99.90;;;;;;5028132;28;20336;-47
2022/04/05 07:43:56;;;;;;;1.90;0.40;;;7.70;99.90;;;;;;5029605;28;20077;-49
2022/04/05 07:46:22;;;;;;;3.50;0.33;;;7.70;99.90;;;;;;5030475;28;20041;-47
2022/04/05 07:48:48;;;;;;;1.43;0.40;;;7.70;99.90;;;;;;5033576;28;20033;-48
2022/04/05 07:51:14;;;;;;;4.35;0.98;;;7.70;99.90;;;;;;5028506;28;20036;-48
2022/04/05 07:53:40;;;;;;;1.25;0.20;;;7.70;99.90;;;;;;5033775;28;20146;-47
2022/04/05 07:56:06;;;;;;;1.77;0.30;;;7.70;99.90;;;;;;5036606;28;20112;-47
2022/04/05 07:58:32;;;;;;;1.73;0.60;;;7.70;99.90;;;;;;5039949;28;20037;-47
2022/04/05 08:00:57;;;;;;;0.47;0.20;;;7.80;99.90;;;;;;5045521;28;20065;-47
2022/04/05 08:03:23;;;;;;;0.47;0.20;;;7.80;99.90;;;;;;5038201;28;20037;-47
2022/04/05 08:05:49;;;;;;;1.75;0.38;;;7.90;99.90;;;;;;5050836;28;20132;-47
2022/04/05 08:08:15;;;;;;;0.73;0.20;;;7.90;99.90;;;;;;5052104;28;20040;-47
2022/04/05 08:10:41;;;;;;;2.05;0.30;;;7.90;99.90;;;;;;5043046;28;20044;-48
2022/04/05 08:13:07;;;;;;;2.25;0.20;;;7.90;99.90;;;;;;5045760;28;20147;-47
2022/04/05 08:15:33;;;;;;;0.43;0.20;;;8.00;99.90;;;;;;5031710;28;20471;-47
2022/04/05 08:17:58;;;;;;;3.47;0.30;;;8.00;99.90;;;;;;5032267;28;20491;-47
2022/04/05 08:20:24;;;;;;;2.70;0.20;;;8.10;99.90;;;;;;5032733;28;20052;-50
2022/04/05 08:22:50;;;;;;;0.50;0.10;;;8.10;99.90;;;;;;5045796;28;20391;-50
2022/04/05 08:25:17;;;;;;;1.20;0.20;;;8.10;99.90;;;;;;5051198;28;20033;-50
2022/04/05 08:27:47;;;;;;;2.30;0.82;;;8.10;99.90;;;;;;5050867;28;20522;-50
2022/04/05 08:30:17;;;;;;;5.45;0.60;;;8.10;99.90;;;;;;5051424;28;20071;-49
2022/04/05 08:32:44;;;;;;;2.13;0.30;;;8.10;99.90;;;;;;5050666;28;20052;-50
2022/04/05 08:35:12;;;;;;;1.45;0.20;;;8.20;99.90;;;;;;5042374;28;20120;-48
2022/04/05 08:37:39;;;;;;;0.70;0.20;;;8.20;99.90;;;;;;5030509;28;20443;-49
2022/04/05 08:40:06;;;;;;;2.28;0.30;;;8.20;99.90;;;;;;5031880;28;20605;-47
2022/04/05 08:42:36;;;;;;;2.63;0.43;;;8.20;99.90;;;;;;5031302;28;20041;-49
2022/04/05 08:45:10;;;;;;;1.45;0.20;;;8.20;99.90;;;;;;5031191;28;20038;-50
2022/04/05 08:47:44;;;;;;;0.63;0.20;;;8.20;99.90;;;;;;5048825;28;20459;-50
2022/04/05 08:50:09;;;;;;;0.85;0.40;;;8.20;99.90;;;;;;5031723;28;20041;-50
2022/04/05 08:52:36;;;;;;;0.57;0.20;;;8.20;99.90;;;;;;5031487;28;20132;-50
2022/04/05 08:55:03;;;;;;;0.73;0.20;;;8.30;99.90;;;;;;5032457;28;20397;-50
2022/04/05 08:57:28;;;;;;;1.45;0.20;;;8.30;99.90;;;;;;5049991;28;20371;-51
2022/04/05 08:59:54;;;;;;;0.87;0.30;;;8.30;99.90;;;;;;5050183;28;20287;-50
2022/04/05 09:02:26;;;;;;;1.03;0.30;;;8.40;99.90;;;;;;5050702;28;20409;-51
2022/04/05 09:04:52;;;;;;;0.40;0.30;;;8.40;99.90;;;;;;5050471;28;20048;-49
2022/04/05 09:07:28;;;;;;;0.10;0.10;;;8.50;99.90;;;;;;5042801;28;20087;-49
2022/04/05 09:10:07;;;;;;;0.20;0.20;;;8.50;99.90;;;;;;5042126;28;20425;-48
2022/04/05 09:12:40;;;;;;;1.83;0.30;;;8.50;99.90;;;;;;5035307;28;20510;-47
2022/04/05 09:15:10;;;;;;;0.52;0.30;;;8.50;99.90;;;;;;5030885;28;20049;-48
2022/04/05 09:17:41;;;;;;;0.30;0.20;;;8.60;99.90;;;;;;5030425;28;20414;-47
2022/04/05 09:20:07;;;;;;;0.57;0.30;;;8.60;99.90;;;;;;5037226;28;20041;-47
2022/04/05 09:22:34;;;;;;;1.45;0.40;;;8.60;99.90;;;;;;5030031;28;20577;-48
2022/04/05 09:25:12;;;;;;;1.08;0.30;;;8.60;99.90;;;;;;5031001;28;20132;-48
2022/04/05 09:27:48;;;;;;;0.98;0.60;;;8.60;99.90;;;;;;5029495;28;20034;-48
2022/04/05 09:30:16;;;;;;;0.60;0.40;;;8.60;99.90;;;;;;5049513;28;20036;-51
2022/04/05 09:32:45;;;;;;;1.17;0.40;;;8.50;99.90;;;;;;5049860;28;20191;-47
2022/04/05 09:35:11;;;;;;;0.95;0.85;;;8.50;99.90;;;;;;5048322;28;20048;-47
2022/04/05 09:37:38;;;;;;;0.68;0.65;;;8.60;99.90;;;;;;5050038;28;20052;-49
2022/04/05 09:40:24;;;;;;;1.00;0.57;;;8.60;99.90;;;;;;5029030;28;20045;-47
2022/04/05 09:43:09;;;;;;;1.15;0.60;;;8.60;99.90;;;;;;5030876;28;20045;-47
2022/04/05 09:45:53;;;;;;;0.80;0.60;;;8.60;99.90;;;;;;5046994;28;20128;-48
2022/04/05 09:48:21;;;;;;;1.17;0.98;;;8.60;99.90;;;;;;5047912;28;20032;-48
2022/04/05 09:51:02;;;;;;;1.45;1.30;;;8.60;99.90;;;;;;5048416;28;20048;-47
2022/04/05 09:53:47;;;;;;;1.50;1.40;;;8.60;99.90;;;;;;5049683;28;20080;-49
2022/04/05 09:56:25;;;;;;;1.63;1.45;;;8.60;99.90;;;;;;5049110;28;20525;-47
2022/04/05 09:59:13;;;;;;;1.90;1.80;;;8.60;99.90;;;;;;5048454;28;20033;-47
2022/04/05 10:01:40;;;;;;;2.28;2.08;;;8.60;99.90;;;;;;5049844;28;20513;-47
2022/04/05 10:04:17;;;;;;;3.35;3.00;;;8.60;99.90;;;;;;5049301;28;20037;-47
2022/04/05 10:06:44;;;;;;;;;;;8.60;99.90;;;;;;5049620;28;20394;-48
2022/04/05 10:09:17;;;;;;;3.35;3.05;;;8.60;99.90;;;;;;5049615;28;19923;-47
2022/04/05 10:11:45;;;;;;;2.63;2.42;;;8.70;99.90;;;;;;5042864;28;20041;-48
2022/04/05 10:14:14;;;;;;;2.83;2.33;;;8.70;99.90;;;;;;5048869;28;20079;-48
2022/04/05 10:16:40;;;;;;;4.28;3.03;;;8.70;99.90;;;;;;5049003;28;20469;-48
2022/04/05 10:19:10;;;;;;;4.18;3.80;;;8.80;99.90;;;;;;5048742;28;20064;-52
2022/04/05 10:21:37;;;;;;;4.75;4.25;;;8.80;99.90;;;;;;5048343;28;20041;-48
2022/04/05 10:24:05;;;;;;;5.65;4.68;;;8.80;99.90;;;;;;5048140;28;20037;-48
2022/04/05 10:26:40;;;;;;;8.05;4.90;;;8.70;99.90;;;;;;5048981;28;20041;-48
2022/04/05 10:29:08;;;;;;;5.75;5.18;;;8.70;99.90;;;;;;5029664;28;20060;-49
2022/04/05 10:32:00;;;;;;;8.48;5.97;;;8.80;99.90;;;;;;5029140;28;20037;-48
2022/04/05 10:34:36;;;;;;;7.10;6.38;;;8.90;99.90;;;;;;5047793;28;20041;-48
2022/04/05 10:37:07;;;;;;;7.05;5.60;;;8.90;99.90;;;;;;5047292;28;20053;-49
2022/04/05 10:39:33;;;;;;;10.05;6.90;;;9.00;99.90;;;;;;5048730;28;20427;-49
2022/04/05 10:42:08;;;;;;;8.98;7.38;;;9.00;99.90;;;;;;5048235;28;21083;-52
2022/04/05 10:44:36;;;;;;;8.95;8.05;;;9.10;99.90;;;;;;5048873;28;20049;-52
2022/04/05 10:47:04;;;;;;;9.68;7.57;;;9.10;99.90;;;;;;5043840;28;20072;-50
2022/04/05 10:49:34;;;;;;;11.48;7.60;;;9.20;99.90;;;;;;5048948;28;20032;-52
2022/04/05 10:52:08;;;;;;;10.15;7.40;;;9.20;99.90;;;;;;5047384;28;20045;-48
2022/04/05 10:54:39;;;;;;;13.05;8.98;;;9.30;99.90;;;;;;5048392;28;20417;-50
2022/04/05 10:57:30;;;;;;;11.43;9.07;;;9.30;99.90;;;;;;5029144;28;20037;-50
2022/04/05 11:00:08;;;;;;;9.88;8.13;;;9.50;99.90;;;;;;5028876;28;20038;-51
2022/04/05 11:02:36;;;;;;;10.85;9.35;;;9.60;99.90;;;;;;5027895;28;20049;-51
2022/04/05 11:05:23;;;;;;;12.30;9.35;;;9.70;99.90;;;;;;5027546;28;20038;-52
2022/04/05 11:07:51;;;;;;;8.18;7.18;;;9.80;99.90;;;;;;5028570;28;20048;-51
2022/04/05 11:10:20;;;;;;;10.65;7.75;;;9.90;99.90;;;;;;5029037;28;20112;-52
2022/04/05 11:12:46;;;;;;;7.93;6.60;;;10.00;99.90;;;;;;5030644;28;20112;-52
2022/04/05 11:15:14;;;;;;;9.88;7.30;;;10.10;99.90;;;;;;5036950;28;20052;-49
2022/04/05 11:17:42;;;;;;;9.02;6.95;;;10.10;99.90;;;;;;5038562;28;20049;-52
2022/04/05 11:20:10;;;;;;;9.32;6.57;;;10.20;99.90;;;;;;5039709;28;20056;-49
2022/04/05 11:22:38;;;;;;;6.65;5.57;;;10.30;99.90;;;;;;5042647;28;20045;-48
2022/04/05 11:25:10;;;;;;;6.53;5.93;;;10.30;99.90;;;;;;5044561;28;20079;-48
2022/04/05 11:27:38;;;;;;;5.55;5.05;;;10.40;99.90;;;;;;5034388;28;20033;-48
2022/04/05 11:30:27;;;;;;;7.30;5.72;;;10.50;99.90;;;;;;5044150;28;20049;-49
2022/04/05 11:33:22;;;;;;;6.07;4.75;;;10.40;99.90;;;;;;5044841;28;20540;-48
2022/04/05 11:35:58;;;;;;;6.03;3.50;;;10.40;99.90;;;;;;5043427;28;20044;-48
2022/04/05 11:38:28;;;;;;;6.38;4.85;;;10.40;99.90;;;;;;5032205;28;20041;-48
2022/04/05 11:40:54;;;;;;;4.57;3.78;;;10.40;99.90;;;;;;5034205;28;20045;-47
2022/04/05 11:43:30;;;;;;;5.18;4.68;;;10.50;99.90;;;;;;5042528;28;20122;-49
2022/04/05 11:46:06;;;;;;;5.18;3.83;;;10.60;99.90;;;;;;5045130;28;20041;-50
2022/04/05 11:48:33;;;;;;;5.88;4.30;;;10.70;99.90;;;;;;5044144;28;20095;-52
2022/04/05 11:51:00;;;;;;;;;;;10.90;99.90;;;;;;5041870;28;20041;-48
2022/04/05 11:53:30;;;;;;;6.80;3.92;;;11.00;99.90;;;;;;5044544;28;20337;-48
2022/04/05 11:56:25;;;;;;;5.30;3.83;;;11.00;99.90;;;;;;5045234;28;20052;-50
2022/04/05 11:58:58;;;;;;;4.72;3.85;;;11.10;99.90;;;;;;5045305;28;20115;-49
2022/04/05 12:01:30;;;;;;;4.65;4.10;;;11.20;99.90;;;;;;5051771;28;20051;-49
2022/04/05 12:04:20;;;;;;;4.57;3.97;;;11.10;99.90;;;;;;5049268;28;20115;-48
2022/04/05 12:06:54;;;;;;;5.43;3.40;;;11.10;99.90;;;;;;5035312;28;20045;-49
2022/04/05 12:09:21;;;;;;;5.20;3.85;;;11.00;99.90;;;;;;5044432;28;20043;-48
2022/04/05 12:11:49;;;;;;;4.70;3.65;;;11.00;99.90;;;;;;5041751;28;20049;-49
2022/04/05 12:14:16;;;;;;;7.40;4.05;;;11.10;99.90;;;;;;5034241;28;20037;-49
2022/04/05 12:16:51;;;;;;;4.95;3.30;;;11.10;99.90;;;;;;5032829;28;20040;-48
2022/04/05 12:19:24;;;;;;;7.22;2.65;;;11.20;99.90;;;;;;5044330;28;20045;-48
2022/04/05 12:21:57;;;;;;;7.15;3.50;;;11.20;99.90;;;;;;5031543;28;20029;-48
2022/04/05 12:24:24;;;;;;;4.88;3.17;;;11.10;99.90;;;;;;5045896;28;20090;-48
2022/04/05 12:26:49;;;;;;;9.13;4.10;;;11.10;99.90;;;;;;5028611;28;20064;-49
2022/04/05 12:29:15;;;;;;;4.18;2.88;;;11.10;99.90;;;;;;5042507;28;20040;-49
2022/04/05 12:31:41;;;;;;;6.97;3.42;;;11.10;99.90;;;;;;5031522;28;20041;-49
2022/04/05 12:34:13;;;;;;;3.60;2.28;;;11.20;99.90;;;;;;5037041;28;20521;-48
2022/04/05 12:36:42;;;;;;;6.28;3.58;;;11.20;99.90;;;;;;5033190;28;20107;-51
2022/04/05 12:39:26;;;;;;;7.25;4.05;;;11.20;99.90;;;;;;5030457;28;20410;-49
2022/04/05 12:42:01;;;;;;;7.13;2.88;;;11.30;99.90;;;;;;5031380;28;20376;-52
2022/04/05 12:44:32;;;;;;;8.18;3.53;;;11.20;99.90;;;;;;5043832;28;20041;-49
2022/04/05 12:47:05;;;;;;;8.82;3.83;;;11.20;99.90;;;;;;5036309;28;20041;-49
2022/04/05 12:49:39;;;;;;;6.15;3.08;;;11.30;99.90;;;;;;5036981;28;20100;-49
2022/04/05 12:52:12;;;;;;;4.75;2.92;;;11.20;99.90;;;;;;5041019;28;20060;-51
2022/04/05 12:54:49;;;;;;;6.90;3.90;;;11.20;99.90;;;;;;5032937;28;20057;-47
2022/04/05 12:57:35;;;;;;;7.38;4.18;;;11.10;99.90;;;;;;5030718;28;20042;-50
2022/04/05 13:00:21;;;;;;;4.68;3.42;;;11.00;99.90;;;;;;5035555;28;20406;-50
2022/04/05 13:02:54;;;;;;;5.70;3.85;;;11.00;99.90;;;;;;5042878;28;20127;-49
2022/04/05 13:08:15;;;;;;;4.82;2.83;;;10.90;99.90;;;;;;5035758;28;20235;-52